sensor_id;sensor_type;location;lat;lon;timestamp;P1;durP1;ratioP1;P2;durP2;ratioP2
13343;SDS011;6741;48.964;9.406;2022-09-27T00:02:18;2.20;;;1.70;;
13343;SDS011;6741;48.964;9.406;2022-09-27T00:04:45;1.97;;;1.80;;
13343;SDS011;6741;48.964;9.406;2022-09-27T00:07:12;2.40;;;1.83;;
13343;SDS011;6741;48.964;9.406;2022-09-27T00:09:39;1.77;;;1.67;;
13343;SDS011;6741;48.964;9.406;2022-09-27T00:12:06;2.87;;;1.80;;
13343;SDS011;6741;48.964;9.406;2022-09-27T00:14:35;2.20;;;1.60;;
13343;SDS011;6741;48.964;9.406;2022-09-27T00:17:02;1.73;;;1.63;;
13343;SDS011;6741;48.964;9.406;2022-09-27T00:19:29;1.80;;;1.50;;
13343;SDS011;6741;48.964;9.406;2022-09-27T00:21:56;1.63;;;1.30;;
13343;SDS011;6741;48.964;9.406;2022-09-27T00:24:25;2.27;;;1.70;;
13343;SDS011;6741;48.964;9.406;2022-09-27T00:26:52;1.40;;;1.30;;
13343;SDS011;6741;48.964;9.406;2022-09-27T00:29:19;1.50;;;1.40;;
13343;SDS011;6741;48.964;9.406;2022-09-27T00:31:47;2.93;;;1.40;;
13343;SDS011;6741;48.964;9.406;2022-09-27T00:34:16;1.20;;;1.10;;
13343;SDS011;6741;48.964;9.406;2022-09-27T00:36:45;1.23;;;1.13;;
13343;SDS011;6741;48.964;9.406;2022-09-27T00:39:12;1.87;;;1.10;;
13343;SDS011;6741;48.964;9.406;2022-09-27T00:41:41;1.97;;;1.00;;
13343;SDS011;6741;48.964;9.406;2022-09-27T00:47:25;1.27;;;1.17;;
13343;SDS011;6741;48.964;9.406;2022-09-27T00:49:56;1.40;;;1.30;;
13343;SDS011;6741;48.964;9.406;2022-09-27T00:52:26;1.43;;;1.20;;
13343;SDS011;6741;48.964;9.406;2022-09-27T00:54:57;1.30;;;1.20;;
13343;SDS011;6741;48.964;9.406;2022-09-27T00:57:27;1.60;;;1.27;;
13343;SDS011;6741;48.964;9.406;2022-09-27T00:59:56;1.83;;;1.10;;
13343;SDS011;6741;48.964;9.406;2022-09-27T01:02:28;2.20;;;1.20;;
13343;SDS011;6741;48.964;9.406;2022-09-27T01:04:57;1.20;;;1.20;;
13343;SDS011;6741;48.964;9.406;2022-09-27T01:07:24;1.30;;;1.20;;
13343;SDS011;6741;48.964;9.406;2022-09-27T01:09:51;1.57;;;1.10;;
13343;SDS011;6741;48.964;9.406;2022-09-27T01:12:20;1.27;;;1.17;;
13343;SDS011;6741;48.964;9.406;2022-09-27T01:15:00;1.33;;;1.23;;
13343;SDS011;6741;48.964;9.406;2022-09-27T01:17:38;1.00;;;1.00;;
13343;SDS011;6741;48.964;9.406;2022-09-27T01:23:30;1.97;;;1.10;;
13343;SDS011;6741;48.964;9.406;2022-09-27T01:26:10;1.10;;;0.97;;
13343;SDS011;6741;48.964;9.406;2022-09-27T01:28:46;1.37;;;1.07;;
13343;SDS011;6741;48.964;9.406;2022-09-27T01:31:25;1.40;;;1.30;;
13343;SDS011;6741;48.964;9.406;2022-09-27T01:33:59;1.20;;;1.10;;
13343;SDS011;6741;48.964;9.406;2022-09-27T01:36:31;2.67;;;1.30;;
13343;SDS011;6741;48.964;9.406;2022-09-27T01:39:09;2.83;;;1.17;;
13343;SDS011;6741;48.964;9.406;2022-09-27T01:41:50;1.23;;;1.13;;
13343;SDS011;6741;48.964;9.406;2022-09-27T01:44:25;1.10;;;1.00;;
13343;SDS011;6741;48.964;9.406;2022-09-27T01:46:59;1.73;;;0.80;;
13343;SDS011;6741;48.964;9.406;2022-09-27T01:49:30;2.43;;;1.27;;
13343;SDS011;6741;48.964;9.406;2022-09-27T01:52:01;0.90;;;0.90;;
13343;SDS011;6741;48.964;9.406;2022-09-27T01:54:35;1.00;;;0.90;;
13343;SDS011;6741;48.964;9.406;2022-09-27T01:57:08;0.83;;;0.83;;
13343;SDS011;6741;48.964;9.406;2022-09-27T01:59:39;1.37;;;1.27;;
13343;SDS011;6741;48.964;9.406;2022-09-27T02:02:12;1.10;;;1.00;;
13343;SDS011;6741;48.964;9.406;2022-09-27T02:04:41;0.80;;;0.80;;
13343;SDS011;6741;48.964;9.406;2022-09-27T02:07:14;1.07;;;1.07;;
13343;SDS011;6741;48.964;9.406;2022-09-27T02:09:48;1.50;;;1.10;;
13343;SDS011;6741;48.964;9.406;2022-09-27T02:12:19;1.03;;;0.93;;
13343;SDS011;6741;48.964;9.406;2022-09-27T02:14:49;1.13;;;0.90;;
13343;SDS011;6741;48.964;9.406;2022-09-27T02:17:24;1.13;;;1.03;;
13343;SDS011;6741;48.964;9.406;2022-09-27T02:19:59;1.00;;;0.90;;
13343;SDS011;6741;48.964;9.406;2022-09-27T02:22:34;0.90;;;0.90;;
13343;SDS011;6741;48.964;9.406;2022-09-27T02:25:08;2.43;;;1.00;;
13343;SDS011;6741;48.964;9.406;2022-09-27T02:27:41;1.23;;;1.13;;
13343;SDS011;6741;48.964;9.406;2022-09-27T02:30:15;0.90;;;0.90;;
13343;SDS011;6741;48.964;9.406;2022-09-27T02:32:44;0.90;;;0.90;;
13343;SDS011;6741;48.964;9.406;2022-09-27T02:35:13;0.87;;;0.87;;
13343;SDS011;6741;48.964;9.406;2022-09-27T02:37:43;1.43;;;1.10;;
13343;SDS011;6741;48.964;9.406;2022-09-27T02:40:11;0.93;;;0.93;;
13343;SDS011;6741;48.964;9.406;2022-09-27T02:42:39;2.17;;;1.10;;
13343;SDS011;6741;48.964;9.406;2022-09-27T02:45:08;1.47;;;1.13;;
13343;SDS011;6741;48.964;9.406;2022-09-27T02:47:41;1.07;;;1.07;;
13343;SDS011;6741;48.964;9.406;2022-09-27T02:50:26;3.07;;;1.57;;
13343;SDS011;6741;48.964;9.406;2022-09-27T02:53:08;1.70;;;1.20;;
13343;SDS011;6741;48.964;9.406;2022-09-27T02:55:43;2.43;;;1.00;;
13343;SDS011;6741;48.964;9.406;2022-09-27T02:58:20;1.63;;;1.03;;
13343;SDS011;6741;48.964;9.406;2022-09-27T03:00:55;3.80;;;1.60;;
13343;SDS011;6741;48.964;9.406;2022-09-27T03:03:32;5.10;;;1.73;;
13343;SDS011;6741;48.964;9.406;2022-09-27T03:06:05;1.03;;;1.03;;
13343;SDS011;6741;48.964;9.406;2022-09-27T03:08:35;3.40;;;1.70;;
13343;SDS011;6741;48.964;9.406;2022-09-27T03:11:03;3.53;;;1.37;;
13343;SDS011;6741;48.964;9.406;2022-09-27T03:13:29;2.27;;;1.50;;
13343;SDS011;6741;48.964;9.406;2022-09-27T03:15:58;5.70;;;1.90;;
13343;SDS011;6741;48.964;9.406;2022-09-27T03:18:25;3.63;;;1.60;;
13343;SDS011;6741;48.964;9.406;2022-09-27T03:20:54;3.07;;;1.50;;
13343;SDS011;6741;48.964;9.406;2022-09-27T03:23:21;3.53;;;1.40;;
13343;SDS011;6741;48.964;9.406;2022-09-27T03:25:48;3.03;;;1.47;;
13343;SDS011;6741;48.964;9.406;2022-09-27T03:28:15;4.30;;;1.73;;
13343;SDS011;6741;48.964;9.406;2022-09-27T03:30:43;2.60;;;1.73;;
13343;SDS011;6741;48.964;9.406;2022-09-27T03:33:10;3.93;;;1.57;;
13343;SDS011;6741;48.964;9.406;2022-09-27T03:35:37;2.40;;;1.57;;
13343;SDS011;6741;48.964;9.406;2022-09-27T03:38:07;3.97;;;2.10;;
13343;SDS011;6741;48.964;9.406;2022-09-27T03:40:34;4.73;;;2.30;;
13343;SDS011;6741;48.964;9.406;2022-09-27T03:43:01;4.33;;;2.10;;
13343;SDS011;6741;48.964;9.406;2022-09-27T03:45:28;3.20;;;2.10;;
13343;SDS011;6741;48.964;9.406;2022-09-27T03:47:55;1.80;;;1.70;;
13343;SDS011;6741;48.964;9.406;2022-09-27T03:50:22;5.47;;;2.40;;
13343;SDS011;6741;48.964;9.406;2022-09-27T03:52:49;2.77;;;2.57;;
13343;SDS011;6741;48.964;9.406;2022-09-27T03:55:18;7.53;;;2.47;;
13343;SDS011;6741;48.964;9.406;2022-09-27T03:57:45;2.90;;;2.60;;
13343;SDS011;6741;48.964;9.406;2022-09-27T04:00:12;4.60;;;3.47;;
13343;SDS011;6741;48.964;9.406;2022-09-27T04:02:40;6.03;;;3.00;;
13343;SDS011;6741;48.964;9.406;2022-09-27T04:05:08;5.63;;;3.03;;
13343;SDS011;6741;48.964;9.406;2022-09-27T04:07:35;4.90;;;2.87;;
13343;SDS011;6741;48.964;9.406;2022-09-27T04:10:03;5.87;;;3.10;;
13343;SDS011;6741;48.964;9.406;2022-09-27T04:12:32;6.53;;;2.90;;
13343;SDS011;6741;48.964;9.406;2022-09-27T04:14:59;8.07;;;3.00;;
13343;SDS011;6741;48.964;9.406;2022-09-27T04:17:26;5.13;;;2.97;;
13343;SDS011;6741;48.964;9.406;2022-09-27T04:19:53;6.33;;;3.53;;
13343;SDS011;6741;48.964;9.406;2022-09-27T04:22:20;4.77;;;3.40;;
13343;SDS011;6741;48.964;9.406;2022-09-27T04:24:47;8.47;;;3.43;;
13343;SDS011;6741;48.964;9.406;2022-09-27T04:27:15;6.80;;;3.23;;
13343;SDS011;6741;48.964;9.406;2022-09-27T04:29:43;5.93;;;3.40;;
13343;SDS011;6741;48.964;9.406;2022-09-27T04:32:11;8.60;;;3.63;;
13343;SDS011;6741;48.964;9.406;2022-09-27T04:34:38;5.53;;;3.20;;
13343;SDS011;6741;48.964;9.406;2022-09-27T04:37:24;7.77;;;3.10;;
13343;SDS011;6741;48.964;9.406;2022-09-27T04:39:52;4.63;;;3.13;;
13343;SDS011;6741;48.964;9.406;2022-09-27T04:42:19;5.63;;;3.20;;
13343;SDS011;6741;48.964;9.406;2022-09-27T04:44:47;8.60;;;3.47;;
13343;SDS011;6741;48.964;9.406;2022-09-27T04:47:14;5.83;;;3.53;;
13343;SDS011;6741;48.964;9.406;2022-09-27T04:49:42;4.03;;;2.77;;
13343;SDS011;6741;48.964;9.406;2022-09-27T04:52:09;7.20;;;4.07;;
13343;SDS011;6741;48.964;9.406;2022-09-27T04:54:36;7.77;;;3.87;;
13343;SDS011;6741;48.964;9.406;2022-09-27T04:57:03;5.30;;;3.47;;
13343;SDS011;6741;48.964;9.406;2022-09-27T04:59:30;7.20;;;3.53;;
13343;SDS011;6741;48.964;9.406;2022-09-27T05:01:58;8.73;;;4.07;;
13343;SDS011;6741;48.964;9.406;2022-09-27T05:04:25;7.60;;;3.70;;
13343;SDS011;6741;48.964;9.406;2022-09-27T05:06:52;7.87;;;4.00;;
13343;SDS011;6741;48.964;9.406;2022-09-27T05:09:20;4.10;;;2.73;;
13343;SDS011;6741;48.964;9.406;2022-09-27T05:11:47;7.50;;;3.50;;
13343;SDS011;6741;48.964;9.406;2022-09-27T05:14:14;5.93;;;3.33;;
13343;SDS011;6741;48.964;9.406;2022-09-27T05:16:41;9.10;;;3.53;;
13343;SDS011;6741;48.964;9.406;2022-09-27T05:19:09;4.40;;;3.57;;
13343;SDS011;6741;48.964;9.406;2022-09-27T05:21:36;6.50;;;3.20;;
13343;SDS011;6741;48.964;9.406;2022-09-27T05:24:03;7.33;;;3.20;;
13343;SDS011;6741;48.964;9.406;2022-09-27T05:26:30;6.57;;;3.33;;
13343;SDS011;6741;48.964;9.406;2022-09-27T05:28:57;7.27;;;3.37;;
13343;SDS011;6741;48.964;9.406;2022-09-27T05:31:24;4.77;;;3.20;;
13343;SDS011;6741;48.964;9.406;2022-09-27T05:33:52;3.93;;;3.10;;
13343;SDS011;6741;48.964;9.406;2022-09-27T05:36:21;8.23;;;3.07;;
13343;SDS011;6741;48.964;9.406;2022-09-27T05:38:48;7.50;;;3.00;;
13343;SDS011;6741;48.964;9.406;2022-09-27T05:41:15;7.10;;;2.87;;
13343;SDS011;6741;48.964;9.406;2022-09-27T05:43:42;7.17;;;2.63;;
13343;SDS011;6741;48.964;9.406;2022-09-27T05:46:10;5.10;;;3.03;;
13343;SDS011;6741;48.964;9.406;2022-09-27T05:48:37;3.83;;;2.47;;
13343;SDS011;6741;48.964;9.406;2022-09-27T05:51:04;4.23;;;2.60;;
13343;SDS011;6741;48.964;9.406;2022-09-27T05:53:33;3.87;;;2.03;;
13343;SDS011;6741;48.964;9.406;2022-09-27T05:56:00;3.43;;;2.40;;
13343;SDS011;6741;48.964;9.406;2022-09-27T05:58:28;3.70;;;2.17;;
13343;SDS011;6741;48.964;9.406;2022-09-27T06:00:55;5.47;;;2.40;;
13343;SDS011;6741;48.964;9.406;2022-09-27T06:03:22;3.30;;;2.07;;
13343;SDS011;6741;48.964;9.406;2022-09-27T06:05:49;3.60;;;2.10;;
13343;SDS011;6741;48.964;9.406;2022-09-27T06:08:16;2.57;;;1.97;;
13343;SDS011;6741;48.964;9.406;2022-09-27T06:10:45;2.80;;;1.73;;
13343;SDS011;6741;48.964;9.406;2022-09-27T06:13:13;2.07;;;1.80;;
13343;SDS011;6741;48.964;9.406;2022-09-27T06:15:42;3.23;;;1.67;;
13343;SDS011;6741;48.964;9.406;2022-09-27T06:18:11;3.40;;;2.03;;
13343;SDS011;6741;48.964;9.406;2022-09-27T06:20:40;3.47;;;1.77;;
13343;SDS011;6741;48.964;9.406;2022-09-27T06:23:08;2.03;;;1.80;;
13343;SDS011;6741;48.964;9.406;2022-09-27T06:25:36;2.43;;;1.80;;
13343;SDS011;6741;48.964;9.406;2022-09-27T06:28:05;3.97;;;1.90;;
13343;SDS011;6741;48.964;9.406;2022-09-27T06:30:33;1.63;;;1.53;;
13343;SDS011;6741;48.964;9.406;2022-09-27T06:33:04;2.53;;;1.80;;
13343;SDS011;6741;48.964;9.406;2022-09-27T06:35:32;1.70;;;1.57;;
13343;SDS011;6741;48.964;9.406;2022-09-27T06:38:01;2.73;;;1.63;;
13343;SDS011;6741;48.964;9.406;2022-09-27T06:40:29;2.20;;;2.00;;
13343;SDS011;6741;48.964;9.406;2022-09-27T06:43:00;2.70;;;2.10;;
13343;SDS011;6741;48.964;9.406;2022-09-27T06:45:29;3.10;;;2.00;;
13343;SDS011;6741;48.964;9.406;2022-09-27T06:47:56;3.33;;;2.20;;
13343;SDS011;6741;48.964;9.406;2022-09-27T06:50:26;4.13;;;1.90;;
13343;SDS011;6741;48.964;9.406;2022-09-27T06:52:53;2.27;;;2.00;;
13343;SDS011;6741;48.964;9.406;2022-09-27T06:55:20;3.07;;;2.17;;
13343;SDS011;6741;48.964;9.406;2022-09-27T06:57:47;3.30;;;2.40;;
13343;SDS011;6741;48.964;9.406;2022-09-27T07:00:29;7.30;;;2.47;;
13343;SDS011;6741;48.964;9.406;2022-09-27T07:02:57;4.20;;;2.87;;
13343;SDS011;6741;48.964;9.406;2022-09-27T07:05:26;6.60;;;2.73;;
13343;SDS011;6741;48.964;9.406;2022-09-27T07:07:53;2.90;;;2.17;;
13343;SDS011;6741;48.964;9.406;2022-09-27T07:10:22;5.20;;;2.20;;
13343;SDS011;6741;48.964;9.406;2022-09-27T07:12:50;3.30;;;2.20;;
13343;SDS011;6741;48.964;9.406;2022-09-27T07:15:17;4.27;;;2.30;;
13343;SDS011;6741;48.964;9.406;2022-09-27T07:17:46;4.17;;;2.17;;
13343;SDS011;6741;48.964;9.406;2022-09-27T07:20:13;4.60;;;2.50;;
13343;SDS011;6741;48.964;9.406;2022-09-27T07:22:40;4.27;;;1.77;;
13343;SDS011;6741;48.964;9.406;2022-09-27T07:25:09;3.73;;;1.93;;
13343;SDS011;6741;48.964;9.406;2022-09-27T07:27:36;2.83;;;1.67;;
13343;SDS011;6741;48.964;9.406;2022-09-27T07:30:06;3.40;;;1.63;;
13343;SDS011;6741;48.964;9.406;2022-09-27T07:32:34;1.90;;;1.43;;
13343;SDS011;6741;48.964;9.406;2022-09-27T07:35:03;1.87;;;1.30;;
13343;SDS011;6741;48.964;9.406;2022-09-27T07:37:32;3.33;;;1.17;;
13343;SDS011;6741;48.964;9.406;2022-09-27T07:39:59;0.77;;;0.77;;
13343;SDS011;6741;48.964;9.406;2022-09-27T07:42:27;0.93;;;0.90;;
13343;SDS011;6741;48.964;9.406;2022-09-27T07:44:55;1.67;;;1.10;;
13343;SDS011;6741;48.964;9.406;2022-09-27T07:47:22;0.90;;;0.90;;
13343;SDS011;6741;48.964;9.406;2022-09-27T07:49:50;2.53;;;1.13;;
13343;SDS011;6741;48.964;9.406;2022-09-27T07:52:18;1.40;;;1.20;;
13343;SDS011;6741;48.964;9.406;2022-09-27T07:54:45;0.97;;;0.93;;
13343;SDS011;6741;48.964;9.406;2022-09-27T07:57:13;3.07;;;1.60;;
13343;SDS011;6741;48.964;9.406;2022-09-27T07:59:40;2.83;;;1.77;;
13343;SDS011;6741;48.964;9.406;2022-09-27T08:02:08;2.57;;;2.20;;
13343;SDS011;6741;48.964;9.406;2022-09-27T08:04:39;3.20;;;1.70;;
13343;SDS011;6741;48.964;9.406;2022-09-27T08:07:08;4.00;;;2.17;;
13343;SDS011;6741;48.964;9.406;2022-09-27T08:09:36;2.77;;;2.20;;
13343;SDS011;6741;48.964;9.406;2022-09-27T08:12:03;4.87;;;2.33;;
13343;SDS011;6741;48.964;9.406;2022-09-27T08:14:30;2.03;;;1.63;;
13343;SDS011;6741;48.964;9.406;2022-09-27T08:16:57;4.67;;;2.67;;
13343;SDS011;6741;48.964;9.406;2022-09-27T08:19:24;2.73;;;1.40;;
13343;SDS011;6741;48.964;9.406;2022-09-27T08:21:51;1.73;;;1.63;;
13343;SDS011;6741;48.964;9.406;2022-09-27T08:24:20;4.67;;;1.77;;
13343;SDS011;6741;48.964;9.406;2022-09-27T08:26:48;2.20;;;1.53;;
13343;SDS011;6741;48.964;9.406;2022-09-27T08:29:15;2.27;;;1.43;;
13343;SDS011;6741;48.964;9.406;2022-09-27T08:31:42;5.30;;;2.00;;
13343;SDS011;6741;48.964;9.406;2022-09-27T08:34:08;1.43;;;1.33;;
13343;SDS011;6741;48.964;9.406;2022-09-27T08:36:35;4.53;;;2.10;;
13343;SDS011;6741;48.964;9.406;2022-09-27T08:39:02;4.13;;;2.43;;
13343;SDS011;6741;48.964;9.406;2022-09-27T08:41:32;5.40;;;1.63;;
13343;SDS011;6741;48.964;9.406;2022-09-27T08:44:09;1.50;;;1.30;;
13343;SDS011;6741;48.964;9.406;2022-09-27T08:46:46;2.73;;;1.80;;
13343;SDS011;6741;48.964;9.406;2022-09-27T08:49:25;1.80;;;1.70;;
13343;SDS011;6741;48.964;9.406;2022-09-27T08:51:58;1.50;;;1.40;;
13343;SDS011;6741;48.964;9.406;2022-09-27T08:54:27;2.13;;;1.50;;
13343;SDS011;6741;48.964;9.406;2022-09-27T08:56:56;4.00;;;1.33;;
13343;SDS011;6741;48.964;9.406;2022-09-27T08:59:30;1.80;;;1.70;;
13343;SDS011;6741;48.964;9.406;2022-09-27T09:02:02;5.43;;;2.50;;
13343;SDS011;6741;48.964;9.406;2022-09-27T09:04:37;4.00;;;2.27;;
13343;SDS011;6741;48.964;9.406;2022-09-27T09:07:07;2.10;;;1.67;;
13343;SDS011;6741;48.964;9.406;2022-09-27T09:09:43;2.67;;;1.70;;
13343;SDS011;6741;48.964;9.406;2022-09-27T09:12:22;2.10;;;1.40;;
13343;SDS011;6741;48.964;9.406;2022-09-27T09:15:17;1.63;;;1.50;;
13343;SDS011;6741;48.964;9.406;2022-09-27T09:17:56;1.03;;;1.03;;
13343;SDS011;6741;48.964;9.406;2022-09-27T09:20:46;1.33;;;1.20;;
13343;SDS011;6741;48.964;9.406;2022-09-27T09:23:38;2.50;;;1.43;;
13343;SDS011;6741;48.964;9.406;2022-09-27T09:26:17;3.17;;;1.60;;
13343;SDS011;6741;48.964;9.406;2022-09-27T09:28:57;3.03;;;1.87;;
13343;SDS011;6741;48.964;9.406;2022-09-27T09:31:39;1.30;;;1.20;;
13343;SDS011;6741;48.964;9.406;2022-09-27T09:34:09;1.93;;;1.50;;
13343;SDS011;6741;48.964;9.406;2022-09-27T09:36:41;3.03;;;1.70;;
13343;SDS011;6741;48.964;9.406;2022-09-27T09:39:12;2.53;;;1.40;;
13343;SDS011;6741;48.964;9.406;2022-09-27T09:41:44;3.63;;;2.13;;
13343;SDS011;6741;48.964;9.406;2022-09-27T09:44:20;2.80;;;1.93;;
13343;SDS011;6741;48.964;9.406;2022-09-27T09:46:53;2.97;;;1.93;;
13343;SDS011;6741;48.964;9.406;2022-09-27T09:49:24;2.40;;;2.20;;
13343;SDS011;6741;48.964;9.406;2022-09-27T09:51:55;3.13;;;2.50;;
13343;SDS011;6741;48.964;9.406;2022-09-27T09:54:27;3.53;;;2.47;;
13343;SDS011;6741;48.964;9.406;2022-09-27T09:56:59;4.97;;;2.23;;
13343;SDS011;6741;48.964;9.406;2022-09-27T09:59:33;2.17;;;1.97;;
13343;SDS011;6741;48.964;9.406;2022-09-27T10:02:13;5.23;;;2.30;;
13343;SDS011;6741;48.964;9.406;2022-09-27T10:04:48;2.00;;;1.90;;
13343;SDS011;6741;48.964;9.406;2022-09-27T10:07:15;4.90;;;2.30;;
13343;SDS011;6741;48.964;9.406;2022-09-27T10:09:46;1.90;;;1.80;;
13343;SDS011;6741;48.964;9.406;2022-09-27T10:12:13;6.57;;;2.00;;
13343;SDS011;6741;48.964;9.406;2022-09-27T10:14:40;2.27;;;1.80;;
13343;SDS011;6741;48.964;9.406;2022-09-27T10:17:10;3.20;;;1.33;;
13343;SDS011;6741;48.964;9.406;2022-09-27T10:19:41;3.50;;;2.00;;
13343;SDS011;6741;48.964;9.406;2022-09-27T10:22:11;2.77;;;1.70;;
13343;SDS011;6741;48.964;9.406;2022-09-27T10:24:51;2.10;;;1.73;;
13343;SDS011;6741;48.964;9.406;2022-09-27T10:27:21;3.13;;;2.03;;
13343;SDS011;6741;48.964;9.406;2022-09-27T10:29:54;4.03;;;2.10;;
13343;SDS011;6741;48.964;9.406;2022-09-27T10:32:25;3.33;;;1.70;;
13343;SDS011;6741;48.964;9.406;2022-09-27T10:37:45;2.40;;;2.10;;
13343;SDS011;6741;48.964;9.406;2022-09-27T10:40:20;2.70;;;1.60;;
13343;SDS011;6741;48.964;9.406;2022-09-27T10:42:52;2.77;;;2.10;;
13343;SDS011;6741;48.964;9.406;2022-09-27T10:45:21;2.77;;;1.93;;
13343;SDS011;6741;48.964;9.406;2022-09-27T10:47:55;4.17;;;1.97;;
13343;SDS011;6741;48.964;9.406;2022-09-27T10:50:23;2.57;;;1.73;;
13343;SDS011;6741;48.964;9.406;2022-09-27T10:52:59;3.40;;;1.77;;
13343;SDS011;6741;48.964;9.406;2022-09-27T10:55:28;2.97;;;1.70;;
13343;SDS011;6741;48.964;9.406;2022-09-27T10:57:58;2.17;;;1.60;;
13343;SDS011;6741;48.964;9.406;2022-09-27T11:00:28;3.60;;;1.90;;
13343;SDS011;6741;48.964;9.406;2022-09-27T11:02:58;3.30;;;1.40;;
13343;SDS011;6741;48.964;9.406;2022-09-27T11:05:30;2.73;;;1.80;;
13343;SDS011;6741;48.964;9.406;2022-09-27T11:08:00;1.80;;;1.70;;
13343;SDS011;6741;48.964;9.406;2022-09-27T11:10:29;3.10;;;1.67;;
13343;SDS011;6741;48.964;9.406;2022-09-27T11:13:04;3.47;;;1.90;;
13343;SDS011;6741;48.964;9.406;2022-09-27T11:15:34;3.10;;;2.00;;
13343;SDS011;6741;48.964;9.406;2022-09-27T11:18:20;2.43;;;2.13;;
13343;SDS011;6741;48.964;9.406;2022-09-27T11:20:55;4.87;;;1.90;;
13343;SDS011;6741;48.964;9.406;2022-09-27T11:23:35;2.37;;;1.57;;
13343;SDS011;6741;48.964;9.406;2022-09-27T11:26:21;3.33;;;1.73;;
13343;SDS011;6741;48.964;9.406;2022-09-27T11:28:58;1.67;;;1.40;;
13343;SDS011;6741;48.964;9.406;2022-09-27T11:31:33;1.70;;;1.60;;
13343;SDS011;6741;48.964;9.406;2022-09-27T11:34:14;3.90;;;2.00;;
13343;SDS011;6741;48.964;9.406;2022-09-27T11:36:59;2.47;;;1.60;;
13343;SDS011;6741;48.964;9.406;2022-09-27T11:39:39;4.10;;;2.30;;
13343;SDS011;6741;48.964;9.406;2022-09-27T11:42:22;3.27;;;2.30;;
13343;SDS011;6741;48.964;9.406;2022-09-27T11:45:16;4.03;;;2.10;;
13343;SDS011;6741;48.964;9.406;2022-09-27T11:47:52;5.53;;;2.70;;
13343;SDS011;6741;48.964;9.406;2022-09-27T11:50:43;3.40;;;2.43;;
13343;SDS011;6741;48.964;9.406;2022-09-27T11:53:40;4.30;;;3.23;;
13343;SDS011;6741;48.964;9.406;2022-09-27T11:56:17;4.70;;;3.33;;
13343;SDS011;6741;48.964;9.406;2022-09-27T11:58:55;4.20;;;2.83;;
13343;SDS011;6741;48.964;9.406;2022-09-27T12:01:32;6.30;;;3.33;;
13343;SDS011;6741;48.964;9.406;2022-09-27T12:04:14;2.80;;;2.50;;
13343;SDS011;6741;48.964;9.406;2022-09-27T12:06:55;1.60;;;1.20;;
13343;SDS011;6741;48.964;9.406;2022-09-27T12:09:29;5.20;;;1.73;;
13343;SDS011;6741;48.964;9.406;2022-09-27T12:12:02;1.40;;;1.30;;
13343;SDS011;6741;48.964;9.406;2022-09-27T12:14:38;3.17;;;1.83;;
13343;SDS011;6741;48.964;9.406;2022-09-27T12:17:25;3.27;;;1.60;;
13343;SDS011;6741;48.964;9.406;2022-09-27T12:20:01;1.70;;;1.43;;
13343;SDS011;6741;48.964;9.406;2022-09-27T12:22:44;3.23;;;1.40;;
13343;SDS011;6741;48.964;9.406;2022-09-27T12:25:19;1.80;;;1.30;;
13343;SDS011;6741;48.964;9.406;2022-09-27T12:27:53;1.20;;;1.03;;
13343;SDS011;6741;48.964;9.406;2022-09-27T12:30:33;1.30;;;1.20;;
13343;SDS011;6741;48.964;9.406;2022-09-27T12:33:08;3.30;;;2.20;;
13343;SDS011;6741;48.964;9.406;2022-09-27T12:35:44;3.20;;;2.33;;
13343;SDS011;6741;48.964;9.406;2022-09-27T12:38:16;1.30;;;1.13;;
13343;SDS011;6741;48.964;9.406;2022-09-27T12:40:48;1.97;;;1.10;;
13343;SDS011;6741;48.964;9.406;2022-09-27T12:43:18;1.43;;;1.00;;
13343;SDS011;6741;48.964;9.406;2022-09-27T12:45:49;1.00;;;0.93;;
13343;SDS011;6741;48.964;9.406;2022-09-27T12:48:23;1.73;;;1.10;;
13343;SDS011;6741;48.964;9.406;2022-09-27T12:50:57;2.67;;;1.67;;
13343;SDS011;6741;48.964;9.406;2022-09-27T12:53:36;3.63;;;1.30;;
13343;SDS011;6741;48.964;9.406;2022-09-27T12:56:19;1.33;;;1.20;;
13343;SDS011;6741;48.964;9.406;2022-09-27T13:01:51;0.97;;;0.77;;
13343;SDS011;6741;48.964;9.406;2022-09-27T13:04:42;1.10;;;0.87;;
13343;SDS011;6741;48.964;9.406;2022-09-27T13:07:23;1.60;;;1.17;;
13343;SDS011;6741;48.964;9.406;2022-09-27T13:13:09;1.03;;;0.93;;
13343;SDS011;6741;48.964;9.406;2022-09-27T13:15:41;2.23;;;0.90;;
13343;SDS011;6741;48.964;9.406;2022-09-27T13:20:58;1.47;;;1.30;;
13343;SDS011;6741;48.964;9.406;2022-09-27T13:32:20;0.77;;;0.70;;
13343;SDS011;6741;48.964;9.406;2022-09-27T13:34:49;1.40;;;0.80;;
13343;SDS011;6741;48.964;9.406;2022-09-27T13:40:20;0.70;;;0.70;;
13343;SDS011;6741;48.964;9.406;2022-09-27T13:42:52;1.33;;;0.80;;
13343;SDS011;6741;48.964;9.406;2022-09-27T13:45:38;0.97;;;0.87;;
13343;SDS011;6741;48.964;9.406;2022-09-27T13:48:08;2.10;;;0.87;;
13343;SDS011;6741;48.964;9.406;2022-09-27T13:50:44;1.67;;;1.00;;
13343;SDS011;6741;48.964;9.406;2022-09-27T13:53:18;1.67;;;1.37;;
13343;SDS011;6741;48.964;9.406;2022-09-27T13:55:50;1.93;;;1.20;;
13343;SDS011;6741;48.964;9.406;2022-09-27T13:58:26;4.33;;;1.83;;
13343;SDS011;6741;48.964;9.406;2022-09-27T14:01:14;2.80;;;1.50;;
13343;SDS011;6741;48.964;9.406;2022-09-27T14:03:47;3.60;;;1.40;;
13343;SDS011;6741;48.964;9.406;2022-09-27T14:06:16;1.30;;;1.20;;
13343;SDS011;6741;48.964;9.406;2022-09-27T14:08:48;1.60;;;1.30;;
13343;SDS011;6741;48.964;9.406;2022-09-27T14:11:20;1.87;;;1.47;;
13343;SDS011;6741;48.964;9.406;2022-09-27T14:13:51;6.60;;;3.10;;
13343;SDS011;6741;48.964;9.406;2022-09-27T14:16:20;8.03;;;4.23;;
13343;SDS011;6741;48.964;9.406;2022-09-27T14:18:50;4.10;;;1.83;;
13343;SDS011;6741;48.964;9.406;2022-09-27T14:21:25;3.03;;;1.60;;
13343;SDS011;6741;48.964;9.406;2022-09-27T14:26:45;1.50;;;1.40;;
13343;SDS011;6741;48.964;9.406;2022-09-27T14:29:14;1.27;;;1.17;;
13343;SDS011;6741;48.964;9.406;2022-09-27T14:31:43;1.90;;;1.33;;
13343;SDS011;6741;48.964;9.406;2022-09-27T14:34:13;2.60;;;1.37;;
13343;SDS011;6741;48.964;9.406;2022-09-27T14:36:42;1.63;;;1.13;;
13343;SDS011;6741;48.964;9.406;2022-09-27T14:39:28;1.50;;;1.40;;
13343;SDS011;6741;48.964;9.406;2022-09-27T14:41:56;1.47;;;1.20;;
13343;SDS011;6741;48.964;9.406;2022-09-27T14:44:24;2.50;;;1.43;;
13343;SDS011;6741;48.964;9.406;2022-09-27T14:47:14;1.90;;;1.27;;
13343;SDS011;6741;48.964;9.406;2022-09-27T14:49:47;2.03;;;1.20;;
13343;SDS011;6741;48.964;9.406;2022-09-27T14:52:16;1.23;;;1.13;;
13343;SDS011;6741;48.964;9.406;2022-09-27T14:54:54;1.50;;;1.40;;
13343;SDS011;6741;48.964;9.406;2022-09-27T14:57:23;1.17;;;1.07;;
13343;SDS011;6741;48.964;9.406;2022-09-27T14:59:51;1.50;;;1.00;;
13343;SDS011;6741;48.964;9.406;2022-09-27T15:02:20;1.73;;;1.60;;
13343;SDS011;6741;48.964;9.406;2022-09-27T15:04:50;1.70;;;1.23;;
13343;SDS011;6741;48.964;9.406;2022-09-27T15:07:18;1.60;;;1.50;;
13343;SDS011;6741;48.964;9.406;2022-09-27T15:09:46;2.50;;;1.40;;
13343;SDS011;6741;48.964;9.406;2022-09-27T15:12:17;1.33;;;1.23;;
13343;SDS011;6741;48.964;9.406;2022-09-27T15:14:49;2.73;;;1.87;;
13343;SDS011;6741;48.964;9.406;2022-09-27T15:17:17;2.00;;;1.80;;
13343;SDS011;6741;48.964;9.406;2022-09-27T15:19:56;1.80;;;1.70;;
13343;SDS011;6741;48.964;9.406;2022-09-27T15:22:30;1.70;;;1.57;;
13343;SDS011;6741;48.964;9.406;2022-09-27T15:25:04;1.17;;;1.07;;
13343;SDS011;6741;48.964;9.406;2022-09-27T15:27:33;1.30;;;1.20;;
13343;SDS011;6741;48.964;9.406;2022-09-27T15:30:03;1.47;;;1.30;;
13343;SDS011;6741;48.964;9.406;2022-09-27T15:32:33;1.47;;;1.20;;
13343;SDS011;6741;48.964;9.406;2022-09-27T15:35:05;1.73;;;1.53;;
13343;SDS011;6741;48.964;9.406;2022-09-27T15:37:34;1.93;;;1.63;;
13343;SDS011;6741;48.964;9.406;2022-09-27T15:40:07;1.97;;;1.20;;
13343;SDS011;6741;48.964;9.406;2022-09-27T15:43:17;1.10;;;1.10;;
13343;SDS011;6741;48.964;9.406;2022-09-27T15:45:48;1.67;;;1.50;;
13343;SDS011;6741;48.964;9.406;2022-09-27T15:48:18;1.30;;;1.20;;
13343;SDS011;6741;48.964;9.406;2022-09-27T15:50:46;2.60;;;1.50;;
13343;SDS011;6741;48.964;9.406;2022-09-27T15:56:11;1.60;;;1.50;;
13343;SDS011;6741;48.964;9.406;2022-09-27T15:58:40;1.70;;;1.60;;
13343;SDS011;6741;48.964;9.406;2022-09-27T16:01:18;2.37;;;1.57;;
13343;SDS011;6741;48.964;9.406;2022-09-27T16:03:49;2.50;;;1.60;;